Time;durP1;ratioP1;P1;durP2;ratioP2;P2;SDS_P1;SDS_P2;PMS_P1;PMS_P2;Temp;Humidity;BMP_temperature;BMP_pressure;BME280_temperature;BME280_humidity;BME280_pressure;Samples;Min_cycle;Max_cycle;Signal;HPM_P1;HPM_P2
2023/01/20 00:01:53;;;;;;;;;;;;;;;;;;5038515;28;19909;-79
2023/01/20 00:04:19;;;;;;;;;;;;;;;;;;5049522;28;20286;-80
2023/01/20 00:06:48;;;;;;;;;;;;;;;;;;5053511;28;19914;-80
2023/01/20 00:09:15;;;;;;;;;;;;;;;;;;5071172;28;19912;-80
2023/01/20 00:11:43;;;;;;;;;;;;;;;;;;5072957;28;19916;-79
2023/01/20 00:14:09;;;;;;;;;;;;;;;;;;5057699;28;19912;-79
2023/01/20 00:16:35;;;;;;;;;;;;;;;;;;5071623;28;20291;-79
2023/01/20 00:19:01;;;;;;;;;;;;;;;;;;5056464;28;19913;-79
2023/01/20 00:21:27;;;;;;;;;;;;;;;;;;5071770;28;19913;-80
2023/01/20 00:23:52;;;;;;;;;;;;;;;;;;5059535;28;19952;-79
2023/01/20 00:26:18;;;;;;;;;;;;;;;;;;5042890;28;19920;-80
2023/01/20 00:28:47;;;;;;;;;;;;;;;;;;5053819;28;19913;-79
2023/01/20 00:31:15;;;;;;;;;;;;;;;;;;5053942;28;19976;-79
2023/01/20 00:33:41;;;;;;;;;;;;;;;;;;5036229;28;19915;-80
2023/01/20 00:36:07;;;;;;;;;;;;;;;;;;5035812;28;19980;-80
2023/01/20 00:38:35;;;;;;;;;;;;;;;;;;5036532;28;19958;-80
2023/01/20 00:41:01;;;;;;;;;;;;;;;;;;5037696;28;20380;-81
2023/01/20 00:43:27;;;;;;;;;;;;;;;;;;5052213;28;19967;-81
2023/01/20 00:45:53;;;;;;;;;;;;;;;;;;5038558;28;20011;-82
2023/01/20 00:48:19;;;;;;;;;;;;;;;;;;5052562;28;20504;-82
2023/01/20 00:50:45;;;;;;;;;;;;;;;;;;5042519;28;19920;-80
2023/01/20 00:53:11;;;;;;;;;;;;;;;;;;5070698;28;20274;-79
2023/01/20 00:55:37;;;;;;;;;;;;;;;;;;5055018;28;19909;-80
2023/01/20 00:58:03;;;;;;;;;;;;;;;;;;5051163;28;19921;-79
2023/01/20 01:00:29;;;;;;;;;;;;;;;;;;5055329;28;19909;-80
2023/01/20 01:02:54;;;;;;;;;;;;;;;;;;5053375;28;19920;-82
2023/01/20 01:05:20;;;;;;;;;;;;;;;;;;5050389;28;19909;-82
2023/01/20 01:07:46;;;;;;;;;;;;;;;;;;5049960;28;19971;-80
2023/01/20 01:10:12;;;;;;;;;;;;;;;;;;5036818;28;20278;-80
2023/01/20 01:12:38;;;;;;;;;;;;;;;;;;5037155;28;19909;-80
2023/01/20 01:15:04;;;;;;;;;;;;;;;;;;5032954;28;19921;-80
2023/01/20 01:17:30;;;;;;;;;;;;;;;;;;5050213;28;19967;-81
2023/01/20 01:19:56;;;;;;;;;;;;;;;;;;5066912;28;19919;-81
2023/01/20 01:22:22;;;;;;;;;;;;;;;;;;5055142;28;19908;-79
2023/01/20 01:24:48;;;;;;;;;;;;;;;;;;5069838;28;19913;-80
2023/01/20 01:27:16;;;;;;;;;;;;;;;;;;5054108;28;20375;-81
2023/01/20 01:29:42;;;;;;;;;;;;;;;;;;5069412;28;19913;-80
2023/01/20 01:32:08;;;;;;;;;;;;;;;;;;5054408;28;19916;-80
2023/01/20 01:34:34;;;;;;;;;;;;;;;;;;5063095;28;19912;-80
2023/01/20 01:36:59;;;;;;;;;;;;;;;;;;5074235;28;19958;-81
2023/01/20 01:39:25;;;;;;;;;;;;;;;;;;5047430;28;19913;-81
2023/01/20 01:41:51;;;;;;;;;;;;;;;;;;5054192;28;19915;-81
2023/01/20 01:44:20;;;;;;;;;;;;;;;;;;5069397;28;19909;-81
2023/01/20 01:46:45;;;;;;;;;;;;;;;;;;5063098;28;19909;-80
2023/01/20 01:49:12;;;;;;;;;;;;;;;;;;5051280;28;20000;-81
2023/01/20 01:51:41;;;;;;;;;;;;;;;;;;5069289;28;19962;-81
2023/01/20 01:54:09;;;;;;;;;;;;;;;;;;5055514;28;19909;-80
2023/01/20 01:56:35;;;;;;;;;;;;;;;;;;5067654;28;19956;-80
2023/01/20 01:59:01;;;;;;;;;;;;;;;;;;5052725;28;19952;-81
2023/01/20 02:01:27;;;;;;;;;;;;;;;;;;5049537;28;19910;-80
2023/01/20 02:03:53;;;;;;;;;;;;;;;;;;5041304;28;19909;-81
2023/01/20 02:06:18;;;;;;;;;;;;;;;;;;5053034;28;19920;-80
2023/01/20 02:08:44;;;;;;;;;;;;;;;;;;5034593;28;19912;-81
2023/01/20 02:11:10;;;;;;;;;;;;;;;;;;5052523;28;19917;-81
2023/01/20 02:13:36;;;;;;;;;;;;;;;;;;5054152;28;20294;-80
2023/01/20 02:16:03;;;;;;;;;;;;;;;;;;5061810;28;20007;-81
2023/01/20 02:18:31;;;;;;;;;;;;;;;;;;5052183;28;19920;-80
2023/01/20 02:20:57;;;;;;;;;;;;;;;;;;5040262;28;19909;-80
2023/01/20 02:23:23;;;;;;;;;;;;;;;;;;5042792;28;19923;-79
2023/01/20 02:25:48;;;;;;;;;;;;;;;;;;5062292;28;19909;-79
2023/01/20 02:28:14;;;;;;;;;;;;;;;;;;5063640;28;19912;-80
2023/01/20 02:30:40;;;;;;;;;;;;;;;;;;5040990;28;20457;-80
2023/01/20 02:33:06;;;;;;;;;;;;;;;;;;5058118;28;19974;-79
2023/01/20 02:35:32;;;;;;;;;;;;;;;;;;5063069;28;19952;-79
2023/01/20 02:37:58;;;;;;;;;;;;;;;;;;5059771;28;20015;-78
2023/01/20 02:40:24;;;;;;;;;;;;;;;;;;5042515;28;19913;-80
2023/01/20 02:42:50;;;;;;;;;;;;;;;;;;5050569;28;20401;-82
2023/01/20 02:45:18;;;;;;;;;;;;;;;;;;5057279;28;20363;-80
2023/01/20 02:47:44;;;;;;;;;;;;;;;;;;5063930;28;19914;-80
2023/01/20 02:50:10;;;;;;;;;;;;;;;;;;5064968;28;19913;-81
2023/01/20 02:52:36;;;;;;;;;;;;;;;;;;5072707;28;19955;-80
2023/01/20 02:55:02;;;;;;;;;;;;;;;;;;5056782;28;20007;-81
2023/01/20 02:57:30;;;;;;;;;;;;;;;;;;5068132;28;20456;-81
2023/01/20 02:59:56;;;;;;;;;;;;;;;;;;5052586;28;19928;-81
2023/01/20 03:02:22;;;;;;;;;;;;;;;;;;5050503;28;19919;-81
2023/01/20 03:04:48;;;;;;;;;;;;;;;;;;5057136;28;20329;-81
2023/01/20 03:07:14;;;;;;;;;;;;;;;;;;5064142;28;19926;-81
2023/01/20 03:09:42;;;;;;;;;;;;;;;;;;5036047;28;19913;-81
2023/01/20 03:12:08;;;;;;;;;;;;;;;;;;5035828;28;20375;-81
2023/01/20 03:14:34;;;;;;;;;;;;;;;;;;5045627;28;19945;-81
2023/01/20 03:17:00;;;;;;;;;;;;;;;;;;5056350;28;19920;-81
2023/01/20 03:19:26;;;;;;;;;;;;;;;;;;5037035;28;20338;-81
2023/01/20 03:21:52;;;;;;;;;;;;;;;;;;5035991;28;19913;-81
2023/01/20 03:24:18;;;;;;;;;;;;;;;;;;5036555;28;19955;-81
2023/01/20 03:26:44;;;;;;;;;;;;;;;;;;5042870;28;19912;-81
2023/01/20 03:29:10;;;;;;;;;;;;;;;;;;5037034;28;19913;-81
2023/01/20 03:31:36;;;;;;;;;;;;;;;;;;5035505;28;20257;-81
2023/01/20 03:34:02;;;;;;;;;;;;;;;;;;5036604;28;19964;-79
2023/01/20 03:36:28;;;;;;;;;;;;;;;;;;5037859;28;19916;-78
2023/01/20 03:38:54;;;;;;;;;;;;;;;;;;5054628;28;19967;-78
2023/01/20 03:41:22;;;;;;;;;;;;;;;;;;5055221;28;19912;-79
2023/01/20 03:43:48;;;;;;;;;;;;;;;;;;5047821;28;19939;-79
2023/01/20 03:46:14;;;;;;;;;;;;;;;;;;5054891;28;19919;-79
2023/01/20 03:48:40;;;;;;;;;;;;;;;;;;5068184;28;19913;-80
2023/01/20 03:51:06;;;;;;;;;;;;;;;;;;5043052;28;19923;-79
2023/01/20 03:53:32;;;;;;;;;;;;;;;;;;5036498;28;19909;-81
2023/01/20 03:55:57;;;;;;;;;;;;;;;;;;5037348;28;20394;-80
2023/01/20 03:58:23;;;;;;;;;;;;;;;;;;5036851;28;20306;-79
2023/01/20 04:00:49;;;;;;;;;;;;;;;;;;5055596;28;20027;-80
2023/01/20 04:03:15;;;;;;;;;;;;;;;;;;5069538;28;20232;-79
2023/01/20 04:05:41;;;;;;;;;;;;;;;;;;5054654;28;19920;-79
2023/01/20 04:08:07;;;;;;;;;;;;;;;;;;5054892;28;19913;-79
2023/01/20 04:10:35;;;;;;;;;;;;;;;;;;5038248;28;19908;-79
2023/01/20 04:13:01;;;;;;;;;;;;;;;;;;5037645;28;19995;-79
2023/01/20 04:15:27;;;;;;;;;;;;;;;;;;5053119;28;19974;-79
2023/01/20 04:17:53;;;;;;;;;;;;;;;;;;5055297;28;19976;-80
2023/01/20 04:20:23;;;;;;;;;;;;;;;;;;5055470;28;19916;-79
2023/01/20 04:22:49;;;;;;;;;;;;;;;;;;5034745;28;20375;-79
2023/01/20 04:25:17;;;;;;;;;;;;;;;;;;5068776;28;19917;-78
2023/01/20 04:27:45;;;;;;;;;;;;;;;;;;5043246;28;20012;-79
2023/01/20 04:30:13;;;;;;;;;;;;;;;;;;5054949;28;19909;-78
2023/01/20 04:32:39;;;;;;;;;;;;;;;;;;5068985;28;20417;-79
2023/01/20 04:35:05;;;;;;;;;;;;;;;;;;5069176;28;19919;-79
2023/01/20 04:37:31;;;;;;;;;;;;;;;;;;5063441;28;19983;-79
2023/01/20 04:39:57;;;;;;;;;;;;;;;;;;5055004;28;20300;-79
2023/01/20 04:42:25;;;;;;;;;;;;;;;;;;5068931;28;19915;-79
2023/01/20 04:44:51;;;;;;;;;;;;;;;;;;5054156;28;19933;-79
2023/01/20 04:47:17;;;;;;;;;;;;;;;;;;5056003;28;19913;-79
2023/01/20 04:49:43;;;;;;;;;;;;;;;;;;5054419;28;19912;-79
2023/01/20 04:52:09;;;;;;;;;;;;;;;;;;5054072;28;19913;-79
2023/01/20 04:54:35;;;;;;;;;;;;;;;;;;5068763;28;19908;-79
2023/01/20 04:57:01;;;;;;;;;;;;;;;;;;5042153;28;19931;-79
2023/01/20 04:59:26;;;;;;;;;;;;;;;;;;5053524;28;19989;-79
2023/01/20 05:01:52;;;;;;;;;;;;;;;;;;5054142;28;20022;-78
2023/01/20 05:04:18;;;;;;;;;;;;;;;;;;5069202;28;19909;-79
2023/01/20 05:06:44;;;;;;;;;;;;;;;;;;5062295;28;19913;-79
2023/01/20 05:09:10;;;;;;;;;;;;;;;;;;5034571;28;20294;-78
2023/01/20 05:11:36;;;;;;;;;;;;;;;;;;5056040;28;20391;-78
2023/01/20 05:14:04;;;;;;;;;;;;;;;;;;5048532;28;20247;-78
2023/01/20 05:16:30;;;;;;;;;;;;;;;;;;5064769;28;19917;-79
2023/01/20 05:18:56;;;;;;;;;;;;;;;;;;5061719;28;19913;-79
2023/01/20 05:21:22;;;;;;;;;;;;;;;;;;5048313;28;19913;-79
2023/01/20 05:23:48;;;;;;;;;;;;;;;;;;5045718;28;19920;-79
2023/01/20 05:26:16;;;;;;;;;;;;;;;;;;5035883;28;19919;-78
2023/01/20 05:28:42;;;;;;;;;;;;;;;;;;5050520;28;20418;-78
2023/01/20 05:31:08;;;;;;;;;;;;;;;;;;5043958;28;19919;-79
2023/01/20 05:33:35;;;;;;;;;;;;;;;;;;5057227;28;19913;-78
2023/01/20 05:36:01;;;;;;;;;;;;;;;;;;5060945;28;19913;-79
2023/01/20 05:38:27;;;;;;;;;;;;;;;;;;5045192;28;20023;-78
2023/01/20 05:40:53;;;;;;;;;;;;;;;;;;5051768;28;20235;-79
2023/01/20 05:43:18;;;;;;;;;;;;;;;;;;5044974;28;19908;-79
2023/01/20 05:45:45;;;;;;;;;;;;;;;;;;5053250;28;19920;-79
2023/01/20 05:48:11;;;;;;;;;;;;;;;;;;5038181;28;20000;-79
2023/01/20 05:50:37;;;;;;;;;;;;;;;;;;5034675;28;20007;-78
2023/01/20 05:53:03;;;;;;;;;;;;;;;;;;5042820;28;19976;-79
2023/01/20 05:55:29;;;;;;;;;;;;;;;;;;5062954;28;19913;-79
2023/01/20 05:57:55;;;;;;;;;;;;;;;;;;5055859;28;20307;-79
2023/01/20 06:00:21;;;;;;;;;;;;;;;;;;5061660;28;19970;-78
2023/01/20 06:02:46;;;;;;;;;;;;;;;;;;5067772;28;19912;-78
2023/01/20 06:05:15;;;;;;;;;;;;;;;;;;5053794;28;19912;-78
2023/01/20 06:07:41;;;;;;;;;;;;;;;;;;5051132;28;19942;-77
2023/01/20 06:10:07;;;;;;;;;;;;;;;;;;5045729;28;19927;-78
2023/01/20 06:12:33;;;;;;;;;;;;;;;;;;5073612;28;20268;-79
2023/01/20 06:14:59;;;;;;;;;;;;;;;;;;5050365;28;19963;-78
2023/01/20 06:17:27;;;;;;;;;;;;;;;;;;5032483;28;19917;-79
2023/01/20 06:19:53;;;;;;;;;;;;;;;;;;5035941;28;20337;-79
2023/01/20 06:22:26;;;;;;;;;;;;;;;;;;5039502;28;19915;-78
2023/01/20 06:24:52;;;;;;;;;;;;;;;;;;5036460;28;19909;-78
2023/01/20 06:27:18;;;;;;;;;;;;;;;;;;5026806;28;19980;-79
2023/01/20 06:29:44;;;;;;;;;;;;;;;;;;5043465;28;19909;-79
2023/01/20 06:32:10;;;;;;;;;;;;;;;;;;5027195;28;19963;-78
2023/01/20 06:34:38;;;;;;;;;;;;;;;;;;5053822;28;19916;-78
2023/01/20 06:37:07;;;;;;;;;;;;;;;;;;5068009;28;19917;-79
2023/01/20 06:39:33;;;;;;;;;;;;;;;;;;5070104;28;20390;-79
2023/01/20 06:41:59;;;;;;;;;;;;;;;;;;5040529;28;19914;-79
2023/01/20 06:44:25;;;;;;;;;;;;;;;;;;5048481;28;19913;-81
2023/01/20 06:46:51;;;;;;;;;;;;;;;;;;5048767;28;20008;-79
2023/01/20 06:49:16;;;;;;;;;;;;;;;;;;5049977;28;19999;-79
2023/01/20 06:51:47;;;;;;;;;;;;;;;;;;5058968;28;20078;-78
2023/01/20 06:54:13;;;;;;;;;;;;;;;;;;5053389;28;19913;-78
2023/01/20 06:56:39;;;;;;;;;;;;;;;;;;5067059;28;20272;-79
2023/01/20 06:59:05;;;;;;;;;;;;;;;;;;5033167;28;20382;-79
2023/01/20 07:01:31;;;;;;;;;;;;;;;;;;5057436;28;19913;-79
2023/01/20 07:03:59;;;;;;;;;;;;;;;;;;5063054;28;20398;-79
2023/01/20 07:06:25;;;;;;;;;;;;;;;;;;5057180;28;20379;-79
2023/01/20 07:08:51;;;;;;;;;;;;;;;;;;5052633;28;19916;-78
2023/01/20 07:11:19;;;;;;;;;;;;;;;;;;5037417;28;19963;-82
2023/01/20 07:13:45;;;;;;;;;;;;;;;;;;5052145;28;19909;-79
2023/01/20 07:16:11;;;;;;;;;;;;;;;;;;5052396;28;19970;-79
2023/01/20 07:18:37;;;;;;;;;;;;;;;;;;5052988;28;19927;-80
2023/01/20 07:21:03;;;;;;;;;;;;;;;;;;5050108;28;19913;-80
2023/01/20 07:23:31;;;;;;;;;;;;;;;;;;5043330;28;19980;-81
2023/01/20 07:25:56;;;;;;;;;;;;;;;;;;5039350;28;20338;-80
2023/01/20 07:28:22;;;;;;;;;;;;;;;;;;5038792;28;20138;-80
2023/01/20 07:30:50;;;;;;;;;;;;;;;;;;5050644;28;19963;-80
2023/01/20 07:33:19;;;;;;;;;;;;;;;;;;5056944;28;20349;-80
2023/01/20 07:35:45;;;;;;;;;;;;;;;;;;5039628;28;19920;-80
2023/01/20 07:38:11;;;;;;;;;;;;;;;;;;5040585;28;19913;-83
2023/01/20 07:40:36;;;;;;;;;;;;;;;;;;5059177;28;19923;-81
2023/01/20 07:43:02;;;;;;;;;;;;;;;;;;5054827;28;19909;-81
2023/01/20 07:45:28;;;;;;;;;;;;;;;;;;5039516;28;19959;-80
2023/01/20 07:47:54;;;;;;;;;;;;;;;;;;5042116;28;19982;-83
2023/01/20 07:50:20;;;;;;;;;;;;;;;;;;5055483;28;19940;-81
2023/01/20 07:52:48;;;;;;;;;;;;;;;;;;5077785;28;19976;-82
2023/01/20 07:55:14;;;;;;;;;;;;;;;;;;5052583;28;19912;-81
2023/01/20 07:57:40;;;;;;;;;;;;;;;;;;5059923;28;19935;-81
2023/01/20 08:00:14;;;;;;;;;;;;;;;;;;5048511;28;20001;-81
2023/01/20 08:02:39;;;;;;;;;;;;;;;;;;5058542;28;19921;-82
2023/01/20 08:05:05;;;;;;;;;;;;;;;;;;5058699;28;19920;-82
2023/01/20 08:07:39;;;;;;;;;;;;;;;;;;5069657;28;19913;-82
2023/01/20 08:10:05;;;;;;;;;;;;;;;;;;5063572;28;20118;-81
2023/01/20 08:12:31;;;;;;;;;;;;;;;;;;5057824;28;19916;-81
2023/01/20 08:14:56;;;;;;;;;;;;;;;;;;5068229;28;20397;-83
2023/01/20 08:17:22;;;;;;;;;;;;;;;;;;5069099;28;19924;-80
2023/01/20 08:19:48;;;;;;;;;;;;;;;;;;5058376;28;19960;-83
2023/01/20 08:22:14;;;;;;;;;;;;;;;;;;5058019;28;19917;-83
2023/01/20 08:24:40;;;;;;;;;;;;;;;;;;5054567;28;19925;-83
2023/01/20 08:27:06;;;;;;;;;;;;;;;;;;5069824;28;19920;-82
2023/01/20 08:29:32;;;;;;;;;;;;;;;;;;5062090;28;19909;-82
2023/01/20 08:31:58;;;;;;;;;;;;;;;;;;5053181;28;19909;-82
2023/01/20 08:34:24;;;;;;;;;;;;;;;;;;5040926;28;20374;-82
2023/01/20 08:36:52;;;;;;;;;;;;;;;;;;5072371;28;20497;-81
2023/01/20 08:39:18;;;;;;;;;;;;;;;;;;5067253;28;19959;-82
2023/01/20 08:41:44;;;;;;;;;;;;;;;;;;5052595;28;19913;-83
2023/01/20 08:44:10;;;;;;;;;;;;;;;;;;5056454;28;19917;-82
2023/01/20 08:46:39;;;;;;;;;;;;;;;;;;5045953;28;19908;-82
2023/01/20 08:49:05;;;;;;;;;;;;;;;;;;5048498;28;20334;-82
2023/01/20 08:51:31;;;;;;;;;;;;;;;;;;5053526;28;19917;-82
2023/01/20 08:53:57;;;;;;;;;;;;;;;;;;5053655;28;19912;-82
2023/01/20 08:56:23;;;;;;;;;;;;;;;;;;5064263;28;19928;-82
2023/01/20 08:58:49;;;;;;;;;;;;;;;;;;5059638;28;19912;-82
2023/01/20 09:01:17;;;;;;;;;;;;;;;;;;5053970;28;19913;-82
2023/01/20 09:03:43;;;;;;;;;;;;;;;;;;5056370;28;19913;-82
2023/01/20 09:06:08;;;;;;;;;;;;;;;;;;5069142;28;19920;-82
2023/01/20 09:08:35;;;;;;;;;;;;;;;;;;5057316;28;20429;-82
2023/01/20 09:11:02;;;;;;;;;;;;;;;;;;5037222;28;21095;-82
2023/01/20 09:13:27;;;;;;;;;;;;;;;;;;5069931;28;19919;-82
2023/01/20 09:15:53;;;;;;;;;;;;;;;;;;5038215;28;19912;-82
2023/01/20 09:18:19;;;;;;;;;;;;;;;;;;5036353;28;19917;-81
2023/01/20 09:20:45;;;;;;;;;;;;;;;;;;5054579;28;19921;-82
2023/01/20 09:23:11;;;;;;;;;;;;;;;;;;5055343;28;19909;-81
2023/01/20 09:25:37;;;;;;;;;;;;;;;;;;5043719;28;19920;-80
2023/01/20 09:28:03;;;;;;;;;;;;;;;;;;5034219;28;20379;-81
2023/01/20 09:30:31;;;;;;;;;;;;;;;;;;5045657;28;19949;-82
2023/01/20 09:32:57;;;;;;;;;;;;;;;;;;5042183;28;19909;-80
2023/01/20 09:35:26;;;;;;;;;;;;;;;;;;5071258;28;19987;-82
2023/01/20 09:46:05;;;;;;;;;;;;;;;;;;5055029;28;19923;-80
2023/01/20 09:54:00;;;;;;;;;;;;;;;;;;5054439;28;19920;-80
2023/01/20 09:56:26;;;;;;;;;;;;;;;;;;5054513;28;19925;-81
2023/01/20 09:58:55;;;;;;;;;;;;;;;;;;5028385;28;19913;-80
2023/01/20 10:01:23;;;;;;;;;;;;;;;;;;5042879;28;19994;-80
2023/01/20 10:03:49;;;;;;;;;;;;;;;;;;5056004;28;19908;-80
2023/01/20 10:06:15;;;;;;;;;;;;;;;;;;5059861;28;19919;-79
2023/01/20 10:08:41;;;;;;;;;;;;;;;;;;5056271;28;19952;-80
2023/01/20 10:11:06;;;;;;;;;;;;;;;;;;5056758;28;19920;-81
2023/01/20 10:13:32;;;;;;;;;;;;;;;;;;5070157;28;20274;-79
2023/01/20 10:15:58;;;;;;;;;;;;;;;;;;5053644;28;20043;-80
2023/01/20 10:18:24;;;;;;;;;;;;;;;;;;5054518;28;19917;-79
2023/01/20 10:20:52;;;;;;;;;;;;;;;;;;5062959;28;19955;-81
2023/01/20 10:23:21;;;;;;;;;;;;;;;;;;5056333;28;19982;-78
2023/01/20 10:25:49;;;;;;;;;;;;;;;;;;5031271;28;19924;-80
2023/01/20 10:28:15;;;;;;;;;;;;;;;;;;5058447;28;19912;-81
2023/01/20 10:30:44;;;;;;;;;;;;;;;;;;5054587;28;20306;-79
2023/01/20 10:33:10;;;;;;;;;;;;;;;;;;5071906;28;19917;-80
2023/01/20 10:35:38;;;;;;;;;;;;;;;;;;5070431;28;19913;-79
2023/01/20 10:38:04;;;;;;;;;;;;;;;;;;5049826;28;19917;-80
2023/01/20 10:40:30;;;;;;;;;;;;;;;;;;5052058;28;19924;-81
2023/01/20 10:42:56;;;;;;;;;;;;;;;;;;5058244;28;19909;-80
2023/01/20 10:45:25;;;;;;;;;;;;;;;;;;5042104;28;19913;-80
2023/01/20 10:47:51;;;;;;;;;;;;;;;;;;5038170;28;20428;-81
2023/01/20 10:50:17;;;;;;;;;;;;;;;;;;5073417;28;19909;-81
2023/01/20 10:52:43;;;;;;;;;;;;;;;;;;5040276;28;19909;-81
2023/01/20 10:55:09;;;;;;;;;;;;;;;;;;5057647;28;20286;-80
2023/01/20 10:57:37;;;;;;;;;;;;;;;;;;5055993;28;19921;-79
2023/01/20 11:00:03;;;;;;;;;;;;;;;;;;5029174;28;19959;-80
2023/01/20 11:02:29;;;;;;;;;;;;;;;;;;5060262;28;20318;-79
2023/01/20 11:04:55;;;;;;;;;;;;;;;;;;5028914;28;19913;-79
2023/01/20 11:07:21;;;;;;;;;;;;;;;;;;5067354;28;19920;-80
2023/01/20 11:09:47;;;;;;;;;;;;;;;;;;5040320;28;19957;-80
2023/01/20 11:12:13;;;;;;;;;;;;;;;;;;5035946;28;19910;-80
2023/01/20 11:14:41;;;;;;;;;;;;;;;;;;5046904;28;19920;-82
2023/01/20 11:17:07;;;;;;;;;;;;;;;;;;5065830;28;20011;-80
2023/01/20 11:19:33;;;;;;;;;;;;;;;;;;5037828;28;20210;-80
2023/01/20 11:21:59;;;;;;;;;;;;;;;;;;5040432;28;20008;-81
2023/01/20 11:24:25;;;;;;;;;;;;;;;;;;5055862;28;20304;-79
2023/01/20 11:26:51;;;;;;;;;;;;;;;;;;5050681;28;19958;-78
2023/01/20 11:29:17;;;;;;;;;;;;;;;;;;5052499;28;19912;-78
2023/01/20 11:31:43;;;;;;;;;;;;;;;;;;5063986;28;19913;-81
2023/01/20 11:34:12;;;;;;;;;;;;;;;;;;5040170;28;20229;-82
2023/01/20 11:36:40;;;;;;;;;;;;;;;;;;5057152;28;19913;-80
2023/01/20 11:39:07;;;;;;;;;;;;;;;;;;5054995;28;19912;-79
2023/01/20 11:41:33;;;;;;;;;;;;;;;;;;5055754;28;19952;-80
2023/01/20 11:43:59;;;;;;;;;;;;;;;;;;5038170;28;19959;-79
2023/01/20 11:46:25;;;;;;;;;;;;;;;;;;5025886;28;19964;-79
2023/01/20 11:48:53;;;;;;;;;;;;;;;;;;5065118;28;21114;-79
2023/01/20 11:51:19;;;;;;;;;;;;;;;;;;5052108;28;19960;-80
2023/01/20 11:53:45;;;;;;;;;;;;;;;;;;5062597;28;19913;-80
2023/01/20 11:56:11;;;;;;;;;;;;;;;;;;5055443;28;19929;-80
2023/01/20 11:58:37;;;;;;;;;;;;;;;;;;5037549;28;19939;-78
2023/01/20 12:01:10;;;;;;;;;;;;;;;;;;5057481;28;19920;-79
2023/01/20 12:03:44;;;;;;;;;;;;;;;;;;5070457;28;19913;-80
2023/01/20 12:06:10;;;;;;;;;;;;;;;;;;5055051;28;20434;-79
2023/01/20 12:08:36;;;;;;;;;;;;;;;;;;5041338;28;19959;-79
2023/01/20 12:11:02;;;;;;;;;;;;;;;;;;5059923;28;19982;-80
2023/01/20 12:13:30;;;;;;;;;;;;;;;;;;5056538;28;19920;-81
2023/01/20 12:15:56;;;;;;;;;;;;;;;;;;5064030;28;20371;-80
2023/01/20 12:18:22;;;;;;;;;;;;;;;;;;5063559;28;19923;-79
2023/01/20 12:20:48;;;;;;;;;;;;;;;;;;5043510;28;19916;-80
2023/01/20 12:23:19;;;;;;;;;;;;;;;;;;5037976;28;19970;-80
2023/01/20 12:25:46;;;;;;;;;;;;;;;;;;5038016;28;20015;-81
2023/01/20 12:28:12;;;;;;;;;;;;;;;;;;5042414;28;19952;-80
2023/01/20 12:30:38;;;;;;;;;;;;;;;;;;5068071;28;19913;-80
2023/01/20 12:33:04;;;;;;;;;;;;;;;;;;5056774;28;19919;-82
2023/01/20 12:35:30;;;;;;;;;;;;;;;;;;5070822;28;19932;-80
2023/01/20 12:37:56;;;;;;;;;;;;;;;;;;5055047;28;20005;-80
2023/01/20 12:40:22;;;;;;;;;;;;;;;;;;5047490;28;19915;-80
2023/01/20 12:42:48;;;;;;;;;;;;;;;;;;5061835;28;19917;-80
2023/01/20 12:45:14;;;;;;;;;;;;;;;;;;5055447;28;19919;-80
2023/01/20 12:47:40;;;;;;;;;;;;;;;;;;5055314;28;20625;-80
2023/01/20 12:50:06;;;;;;;;;;;;;;;;;;5052502;28;19913;-80
2023/01/20 12:52:31;;;;;;;;;;;;;;;;;;5054978;28;19958;-79
2023/01/20 12:54:57;;;;;;;;;;;;;;;;;;5046054;28;19917;-78
2023/01/20 12:57:23;;;;;;;;;;;;;;;;;;5050066;28;19928;-79
2023/01/20 12:59:49;;;;;;;;;;;;;;;;;;5054510;28;19960;-82
2023/01/20 13:02:15;;;;;;;;;;;;;;;;;;5043560;28;19995;-82
2023/01/20 13:04:41;;;;;;;;;;;;;;;;;;5045445;28;20313;-81
2023/01/20 13:07:07;;;;;;;;;;;;;;;;;;5047089;28;19962;-82
2023/01/20 13:09:33;;;;;;;;;;;;;;;;;;5056153;28;19909;-82
2023/01/20 13:12:01;;;;;;;;;;;;;;;;;;5037322;28;19920;-82
2023/01/20 13:14:28;;;;;;;;;;;;;;;;;;5068036;28;20390;-81
2023/01/20 13:16:54;;;;;;;;;;;;;;;;;;5055099;28;19913;-82
2023/01/20 13:19:22;;;;;;;;;;;;;;;;;;5055145;28;19966;-81
2023/01/20 13:21:48;;;;;;;;;;;;;;;;;;5060225;28;19913;-80
2023/01/20 13:24:17;;;;;;;;;;;;;;;;;;5072165;28;19936;-82
2023/01/20 13:26:43;;;;;;;;;;;;;;;;;;5061844;28;19913;-81
2023/01/20 13:29:09;;;;;;;;;;;;;;;;;;5056323;28;20444;-82
2023/01/20 13:31:35;;;;;;;;;;;;;;;;;;5073577;28;19919;-81
2023/01/20 13:34:01;;;;;;;;;;;;;;;;;;5036756;28;19920;-82
2023/01/20 13:36:27;;;;;;;;;;;;;;;;;;5055079;28;19921;-81
2023/01/20 13:38:52;;;;;;;;;;;;;;;;;;5036837;28;19920;-80
2023/01/20 13:41:18;;;;;;;;;;;;;;;;;;5054318;28;19915;-82
2023/01/20 13:43:44;;;;;;;;;;;;;;;;;;5053557;28;19916;-82
2023/01/20 13:46:10;;;;;;;;;;;;;;;;;;5054282;28;19955;-81
2023/01/20 13:48:36;;;;;;;;;;;;;;;;;;5056194;28;19913;-82
2023/01/20 13:51:02;;;;;;;;;;;;;;;;;;5056975;28;19920;-82
2023/01/20 13:53:28;;;;;;;;;;;;;;;;;;5059203;28;20390;-80
2023/01/20 13:55:54;;;;;;;;;;;;;;;;;;5074025;28;19909;-81
2023/01/20 13:58:20;;;;;;;;;;;;;;;;;;5058137;28;20008;-81
2023/01/20 14:00:46;;;;;;;;;;;;;;;;;;5058579;28;19955;-81
2023/01/20 14:03:15;;;;;;;;;;;;;;;;;;5068181;28;19984;-81
2023/01/20 14:05:41;;;;;;;;;;;;;;;;;;5040312;28;19920;-81
2023/01/20 14:08:07;;;;;;;;;;;;;;;;;;5040854;28;20015;-81
2023/01/20 14:10:33;;;;;;;;;;;;;;;;;;5042281;28;20430;-81
2023/01/20 14:12:59;;;;;;;;;;;;;;;;;;5040463;28;19913;-80
2023/01/20 14:15:25;;;;;;;;;;;;;;;;;;5078560;28;19909;-82
2023/01/20 14:17:51;;;;;;;;;;;;;;;;;;5068653;28;19935;-80
2023/01/20 14:20:17;;;;;;;;;;;;;;;;;;5061058;28;19909;-81
2023/01/20 14:22:43;;;;;;;;;;;;;;;;;;5075579;28;19913;-79
2023/01/20 14:25:08;;;;;;;;;;;;;;;;;;5059778;28;19909;-81
2023/01/20 14:27:40;;;;;;;;;;;;;;;;;;5073193;28;19912;-81
2023/01/20 14:30:06;;;;;;;;;;;;;;;;;;5074277;28;20361;-81
2023/01/20 14:32:32;;;;;;;;;;;;;;;;;;5072246;28;19956;-80
2023/01/20 14:34:58;;;;;;;;;;;;;;;;;;5074297;28;19909;-79
2023/01/20 14:37:24;;;;;;;;;;;;;;;;;;5073314;28;20066;-81
2023/01/20 14:39:50;;;;;;;;;;;;;;;;;;5058642;28;19919;-80
2023/01/20 14:42:16;;;;;;;;;;;;;;;;;;5058721;28;19952;-81
2023/01/20 14:44:42;;;;;;;;;;;;;;;;;;5057876;28;20626;-81
2023/01/20 14:47:08;;;;;;;;;;;;;;;;;;5058680;28;19912;-80
2023/01/20 14:49:34;;;;;;;;;;;;;;;;;;5073447;28;19909;-81
2023/01/20 14:52:00;;;;;;;;;;;;;;;;;;5066597;28;19920;-81
2023/01/20 14:54:29;;;;;;;;;;;;;;;;;;5038726;28;20004;-80
2023/01/20 14:56:57;;;;;;;;;;;;;;;;;;5043843;28;20280;-80
2023/01/20 14:59:23;;;;;;;;;;;;;;;;;;5051580;28;19939;-81
2023/01/20 15:01:52;;;;;;;;;;;;;;;;;;5039227;28;20356;-79
2023/01/20 15:04:18;;;;;;;;;;;;;;;;;;5058478;28;19908;-81
2023/01/20 15:06:43;;;;;;;;;;;;;;;;;;5076259;28;19915;-82
2023/01/20 15:09:10;;;;;;;;;;;;;;;;;;5056884;28;19913;-81
2023/01/20 15:11:36;;;;;;;;;;;;;;;;;;5073022;28;19991;-81
2023/01/20 15:14:08;;;;;;;;;;;;;;;;;;5069546;28;19913;-81
2023/01/20 15:16:35;;;;;;;;;;;;;;;;;;5056721;28;20494;-80
2023/01/20 15:19:01;;;;;;;;;;;;;;;;;;5039609;28;20436;-80
2023/01/20 15:21:29;;;;;;;;;;;;;;;;;;5060009;28;19913;-80
2023/01/20 15:23:55;;;;;;;;;;;;;;;;;;5057807;28;19945;-81
2023/01/20 15:26:20;;;;;;;;;;;;;;;;;;5051565;28;19924;-82
2023/01/20 15:28:47;;;;;;;;;;;;;;;;;;5057229;28;19956;-83
2023/01/20 15:31:13;;;;;;;;;;;;;;;;;;5058024;28;19920;-80
2023/01/20 15:33:39;;;;;;;;;;;;;;;;;;5073707;28;20287;-80
2023/01/20 15:36:04;;;;;;;;;;;;;;;;;;5066442;28;20373;-80
2023/01/20 15:38:33;;;;;;;;;;;;;;;;;;5069916;28;19920;-80
2023/01/20 15:40:59;;;;;;;;;;;;;;;;;;5038604;28;19913;-81
2023/01/20 15:43:25;;;;;;;;;;;;;;;;;;5072865;28;19920;-79
2023/01/20 15:45:50;;;;;;;;;;;;;;;;;;5040242;28;19920;-81
2023/01/20 15:48:16;;;;;;;;;;;;;;;;;;5060568;28;19966;-80
2023/01/20 15:50:42;;;;;;;;;;;;;;;;;;5058587;28;19916;-79
2023/01/20 15:53:08;;;;;;;;;;;;;;;;;;5040610;28;19991;-79
2023/01/20 15:55:36;;;;;;;;;;;;;;;;;;5040998;28;19914;-82
2023/01/20 15:58:02;;;;;;;;;;;;;;;;;;5054455;28;19921;-80
2023/01/20 16:00:29;;;;;;;;;;;;;;;;;;5055647;28;19919;-82
2023/01/20 16:02:57;;;;;;;;;;;;;;;;;;5047338;28;20291;-81
2023/01/20 16:05:31;;;;;;;;;;;;;;;;;;5051750;28;19923;-80
2023/01/20 16:07:56;;;;;;;;;;;;;;;;;;5041193;28;20426;-80
2023/01/20 16:10:22;;;;;;;;;;;;;;;;;;5069563;28;19939;-82
2023/01/20 16:12:48;;;;;;;;;;;;;;;;;;5056880;28;19956;-82
2023/01/20 16:15:14;;;;;;;;;;;;;;;;;;5057264;28;19937;-81
2023/01/20 16:17:40;;;;;;;;;;;;;;;;;;5063480;28;19921;-80
2023/01/20 16:20:06;;;;;;;;;;;;;;;;;;5062216;28;19920;-80
2023/01/20 16:22:32;;;;;;;;;;;;;;;;;;5065538;28;19912;-83
2023/01/20 16:24:58;;;;;;;;;;;;;;;;;;5039173;28;19975;-82
2023/01/20 16:27:24;;;;;;;;;;;;;;;;;;5070389;28;19916;-84
2023/01/20 16:29:50;;;;;;;;;;;;;;;;;;5060097;28;20286;-81
2023/01/20 16:32:18;;;;;;;;;;;;;;;;;;5077016;28;19912;-81
2023/01/20 16:34:43;;;;;;;;;;;;;;;;;;5062133;28;19913;-82
2023/01/20 16:37:12;;;;;;;;;;;;;;;;;;5060011;28;19917;-82
2023/01/20 16:39:38;;;;;;;;;;;;;;;;;;5055815;28;19912;-83
2023/01/20 16:42:04;;;;;;;;;;;;;;;;;;5055187;28;20563;-82
2023/01/20 16:44:29;;;;;;;;;;;;;;;;;;5050489;28;19913;-81
2023/01/20 16:46:56;;;;;;;;;;;;;;;;;;5051793;28;19909;-83
2023/01/20 16:49:22;;;;;;;;;;;;;;;;;;5040358;28;19913;-83
2023/01/20 16:51:48;;;;;;;;;;;;;;;;;;5056750;28;19970;-82
2023/01/20 16:54:16;;;;;;;;;;;;;;;;;;5064614;28;19909;-83